LYM820 KDEN-KLBF
Flight info
| Callsign | LYM820 |
|---|---|
| Flight time | 0h 44m |
| Altitude | 21000 |
| Route | PLAIN2 AKO MUYDO |
| Aircraft | B350/L-SBGRW/S |
Departure
| Time | 2026-04-25 22:06 |
|---|---|
| Airport | Denver International Airport (KDEN) |
Arrival
| Time | 2026-04-25 22:51 |
|---|---|
| Airport | North Platte Regional Airport Lee Bird Field (KLBF) |
| Time | Latitude | Longitude | Altitude | Speed | Heading |
|---|---|---|---|---|---|
| 2026-04-25 21:33 | 39.86257 | -104.66577 | 5373 ft | 0 kts | 270° |
| 2026-04-25 21:55 | 39.86257 | -104.66573 | 5373 ft | 3 kts | 270° |
| 2026-04-25 21:56 | 39.86257 | -104.66545 | 5371 ft | 2 kts | 270° |
| 2026-04-25 21:56 | 39.86257 | -104.66523 | 5374 ft | 4 kts | 270° |
| 2026-04-25 21:56 | 39.86257 | -104.66503 | 5374 ft | 0 kts | 270° |
| 2026-04-25 21:58 | 39.86257 | -104.66505 | 5374 ft | 2 kts | 279° |
| 2026-04-25 21:58 | 39.86321 | -104.66508 | 5372 ft | 15 kts | 359° |
| 2026-04-25 21:58 | 39.86436 | -104.66504 | 5374 ft | 12 kts | 0° |
| 2026-04-25 21:58 | 39.86440 | -104.66504 | 5374 ft | 0 kts | 0° |
| 2026-04-25 21:59 | 39.86455 | -104.66505 | 5372 ft | 8 kts | 358° |
| 2026-04-25 22:00 | 39.86501 | -104.66316 | 5375 ft | 16 kts | 86° |
| 2026-04-25 22:00 | 39.86605 | -104.66217 | 5374 ft | 25 kts | 356° |
| 2026-04-25 22:00 | 39.86795 | -104.66220 | 5369 ft | 28 kts | 1° |
| 2026-04-25 22:00 | 39.86988 | -104.66217 | 5364 ft | 27 kts | 1° |
| 2026-04-25 22:01 | 39.87172 | -104.66217 | 5362 ft | 26 kts | 0° |
| 2026-04-25 22:01 | 39.87350 | -104.66215 | 5359 ft | 25 kts | 0° |
| 2026-04-25 22:01 | 39.87519 | -104.66212 | 5357 ft | 23 kts | 1° |
| 2026-04-25 22:01 | 39.87584 | -104.66149 | 5358 ft | 17 kts | 71° |
| 2026-04-25 22:02 | 39.87636 | -104.66101 | 5357 ft | 0 kts | 42° |
| 2026-04-25 22:03 | 39.87647 | -104.66096 | 5357 ft | 6 kts | 355° |
| 2026-04-25 22:03 | 39.87649 | -104.66096 | 5357 ft | 0 kts | 355° |
| 2026-04-25 22:04 | 39.87670 | -104.66098 | 5357 ft | 16 kts | 358° |
| 2026-04-25 22:04 | 39.87754 | -104.66052 | 5355 ft | 6 kts | 92° |
| 2026-04-25 22:04 | 39.87754 | -104.66050 | 5355 ft | 0 kts | 90° |
| 2026-04-25 22:05 | 39.87754 | -104.66013 | 5354 ft | 27 kts | 90° |
| 2026-04-25 22:05 | 39.87750 | -104.65399 | 5348 ft | 103 kts | 90° |
| 2026-04-25 22:06 | 39.87744 | -104.64276 | 5394 ft | 144 kts | 90° |
| 2026-04-25 22:06 | 39.87733 | -104.62849 | 5790 ft | 166 kts | 90° |
| 2026-04-25 22:06 | 39.87744 | -104.61338 | 6487 ft | 168 kts | 85° |
| 2026-04-25 22:06 | 39.88002 | -104.59868 | 7238 ft | 170 kts | 71° |
| 2026-04-25 22:07 | 39.88387 | -104.58364 | 7831 ft | 176 kts | 73° |
| 2026-04-25 22:07 | 39.88630 | -104.57331 | 8295 ft | 177 kts | 73° |
| 2026-04-25 22:07 | 39.89113 | -104.55262 | 9129 ft | 180 kts | 73° |
| 2026-04-25 22:07 | 39.89477 | -104.53715 | 9597 ft | 183 kts | 72° |
| 2026-04-25 22:08 | 39.89857 | -104.52115 | 10063 ft | 187 kts | 72° |
| 2026-04-25 22:08 | 39.90233 | -104.50540 | 10720 ft | 178 kts | 72° |
| 2026-04-25 22:08 | 39.90580 | -104.49034 | 11396 ft | 170 kts | 72° |
| 2026-04-25 22:08 | 39.90893 | -104.47553 | 11953 ft | 171 kts | 71° |
| 2026-04-25 22:09 | 39.91191 | -104.46025 | 12415 ft | 178 kts | 72° |
| 2026-04-25 22:09 | 39.91496 | -104.44433 | 12880 ft | 185 kts | 73° |
| 2026-04-25 22:09 | 39.91829 | -104.42790 | 13357 ft | 190 kts | 73° |
| 2026-04-25 22:09 | 39.92199 | -104.41126 | 13857 ft | 193 kts | 73° |
| 2026-04-25 22:10 | 39.92584 | -104.39437 | 14365 ft | 196 kts | 72° |
| 2026-04-25 22:10 | 39.92973 | -104.37729 | 14853 ft | 198 kts | 72° |
| 2026-04-25 22:10 | 39.93365 | -104.35992 | 15360 ft | 200 kts | 72° |
| 2026-04-25 22:10 | 39.93756 | -104.34240 | 15847 ft | 203 kts | 72° |
| 2026-04-25 22:11 | 39.94150 | -104.32465 | 16312 ft | 205 kts | 72° |
| 2026-04-25 22:11 | 39.94545 | -104.30666 | 16788 ft | 207 kts | 72° |
| 2026-04-25 22:11 | 39.94939 | -104.28850 | 17262 ft | 210 kts | 72° |
| 2026-04-25 22:11 | 39.95333 | -104.27006 | 17720 ft | 214 kts | 72° |
| 2026-04-25 22:12 | 39.95727 | -104.25139 | 18165 ft | 215 kts | 72° |
| 2026-04-25 22:12 | 39.96121 | -104.23249 | 18594 ft | 217 kts | 72° |
| 2026-04-25 22:12 | 39.96521 | -104.21342 | 19020 ft | 219 kts | 72° |
| 2026-04-25 22:12 | 39.96788 | -104.20067 | 19293 ft | 221 kts | 72° |
| 2026-04-25 22:13 | 39.97188 | -104.17425 | 19840 ft | 225 kts | 82° |
| 2026-04-25 22:13 | 39.97424 | -104.15414 | 20321 ft | 221 kts | 79° |
| 2026-04-25 22:13 | 39.97679 | -104.13458 | 20814 ft | 219 kts | 79° |
| 2026-04-25 22:13 | 39.97940 | -104.11409 | 20893 ft | 240 kts | 80° |
| 2026-04-25 22:14 | 39.98221 | -104.09183 | 20918 ft | 258 kts | 80° |
| 2026-04-25 22:14 | 39.98516 | -104.06805 | 20934 ft | 273 kts | 80° |
| 2026-04-25 22:14 | 39.98824 | -104.04302 | 20932 ft | 285 kts | 80° |
| 2026-04-25 22:14 | 39.99143 | -104.01699 | 20931 ft | 295 kts | 80° |
| 2026-04-25 22:15 | 39.99471 | -103.99028 | 20933 ft | 302 kts | 80° |
| 2026-04-25 22:15 | 39.99806 | -103.96298 | 20934 ft | 308 kts | 80° |
| 2026-04-25 22:15 | 40.00147 | -103.93523 | 20937 ft | 311 kts | 80° |
| 2026-04-25 22:16 | 40.00833 | -103.87895 | 20929 ft | 317 kts | 81° |
| 2026-04-25 22:16 | 40.01179 | -103.85046 | 20942 ft | 318 kts | 81° |
| 2026-04-25 22:16 | 40.01526 | -103.82188 | 20938 ft | 320 kts | 81° |
| 2026-04-25 22:16 | 40.01878 | -103.79320 | 20939 ft | 321 kts | 79° |
| 2026-04-25 22:17 | 40.02329 | -103.76467 | 20935 ft | 321 kts | 75° |
| 2026-04-25 22:17 | 40.02920 | -103.73654 | 20934 ft | 322 kts | 72° |
| 2026-04-25 22:17 | 40.03571 | -103.70856 | 20933 ft | 323 kts | 72° |
| 2026-04-25 22:17 | 40.04210 | -103.68048 | 20931 ft | 323 kts | 72° |
| 2026-04-25 22:18 | 40.04850 | -103.65236 | 20932 ft | 323 kts | 72° |
| 2026-04-25 22:18 | 40.05491 | -103.62426 | 20932 ft | 323 kts | 72° |
| 2026-04-25 22:18 | 40.06133 | -103.59614 | 20937 ft | 323 kts | 72° |
| 2026-04-25 22:18 | 40.06775 | -103.56802 | 20932 ft | 324 kts | 72° |
| 2026-04-25 22:19 | 40.07416 | -103.53989 | 20933 ft | 322 kts | 72° |
| 2026-04-25 22:19 | 40.08050 | -103.51202 | 20932 ft | 319 kts | 72° |
| 2026-04-25 22:19 | 40.08680 | -103.48434 | 20933 ft | 317 kts | 72° |
| 2026-04-25 22:19 | 40.09306 | -103.45677 | 20939 ft | 316 kts | 72° |
| 2026-04-25 22:20 | 40.09927 | -103.42938 | 20931 ft | 314 kts | 72° |
| 2026-04-25 22:20 | 40.10547 | -103.40203 | 20932 ft | 314 kts | 72° |
| 2026-04-25 22:20 | 40.11164 | -103.37476 | 20938 ft | 313 kts | 73° |
| 2026-04-25 22:20 | 40.11779 | -103.34753 | 20932 ft | 312 kts | 73° |
| 2026-04-25 22:21 | 40.12391 | -103.32037 | 20932 ft | 312 kts | 73° |
| 2026-04-25 22:21 | 40.13004 | -103.29320 | 20936 ft | 312 kts | 73° |
| 2026-04-25 22:21 | 40.13616 | -103.26595 | 20931 ft | 312 kts | 73° |
| 2026-04-25 22:21 | 40.14228 | -103.23882 | 20934 ft | 311 kts | 73° |
| 2026-04-25 22:22 | 40.14836 | -103.21166 | 20935 ft | 311 kts | 73° |
| 2026-04-25 22:22 | 40.15496 | -103.18479 | 20935 ft | 310 kts | 70° |
| 2026-04-25 22:22 | 40.16268 | -103.15849 | 20932 ft | 310 kts | 66° |
| 2026-04-25 22:22 | 40.17124 | -103.13266 | 20937 ft | 310 kts | 65° |
| 2026-04-25 22:23 | 40.17981 | -103.10686 | 20932 ft | 309 kts | 65° |
| 2026-04-25 22:23 | 40.18833 | -103.08101 | 20933 ft | 309 kts | 65° |
| 2026-04-25 22:23 | 40.19684 | -103.05520 | 20935 ft | 309 kts | 65° |
| 2026-04-25 22:23 | 40.20537 | -103.02935 | 20938 ft | 310 kts | 66° |
| 2026-04-25 22:24 | 40.21101 | -103.01221 | 20939 ft | 309 kts | 66° |
| 2026-04-25 22:24 | 40.21951 | -102.98639 | 20940 ft | 309 kts | 65° |
| 2026-04-25 22:24 | 40.22801 | -102.96061 | 20942 ft | 309 kts | 65° |
| 2026-04-25 22:24 | 40.23652 | -102.93479 | 20944 ft | 309 kts | 66° |
| 2026-04-25 22:25 | 40.24502 | -102.90898 | 20943 ft | 309 kts | 66° |
| 2026-04-25 22:25 | 40.25351 | -102.88317 | 20943 ft | 309 kts | 66° |
| 2026-04-25 22:25 | 40.26202 | -102.85733 | 20947 ft | 309 kts | 66° |
| 2026-04-25 22:25 | 40.27051 | -102.83151 | 20951 ft | 309 kts | 66° |
| 2026-04-25 22:26 | 40.27897 | -102.80569 | 20951 ft | 309 kts | 66° |
| 2026-04-25 22:26 | 40.28746 | -102.77977 | 20952 ft | 309 kts | 66° |
| 2026-04-25 22:26 | 40.29591 | -102.75391 | 20952 ft | 309 kts | 66° |
| 2026-04-25 22:26 | 40.30439 | -102.72799 | 20952 ft | 309 kts | 66° |
| 2026-04-25 22:27 | 40.31284 | -102.70214 | 20953 ft | 309 kts | 66° |
| 2026-04-25 22:27 | 40.32127 | -102.67628 | 20958 ft | 309 kts | 66° |
| 2026-04-25 22:27 | 40.32969 | -102.65041 | 20960 ft | 308 kts | 66° |
| 2026-04-25 22:27 | 40.33812 | -102.62459 | 20960 ft | 308 kts | 66° |
| 2026-04-25 22:28 | 40.34651 | -102.59876 | 20961 ft | 308 kts | 66° |
| 2026-04-25 22:28 | 40.35489 | -102.57294 | 20961 ft | 308 kts | 66° |
| 2026-04-25 22:28 | 40.36327 | -102.54713 | 20961 ft | 308 kts | 66° |
| 2026-04-25 22:28 | 40.37165 | -102.52127 | 20962 ft | 308 kts | 66° |
| 2026-04-25 22:29 | 40.38002 | -102.49547 | 20961 ft | 308 kts | 66° |
| 2026-04-25 22:29 | 40.38839 | -102.46966 | 20962 ft | 308 kts | 66° |
| 2026-04-25 22:29 | 40.39677 | -102.44381 | 20962 ft | 308 kts | 66° |
| 2026-04-25 22:30 | 40.41348 | -102.39213 | 20961 ft | 308 kts | 66° |
| 2026-04-25 22:30 | 40.42181 | -102.36630 | 20963 ft | 308 kts | 67° |
| 2026-04-25 22:30 | 40.43015 | -102.34042 | 20965 ft | 308 kts | 66° |
| 2026-04-25 22:30 | 40.43566 | -102.32332 | 20967 ft | 308 kts | 67° |
| 2026-04-25 22:31 | 40.44680 | -102.28870 | 20971 ft | 308 kts | 67° |
| 2026-04-25 22:31 | 40.45509 | -102.26286 | 20970 ft | 307 kts | 67° |
| 2026-04-25 22:31 | 40.46340 | -102.23702 | 20970 ft | 307 kts | 67° |
| 2026-04-25 22:31 | 40.47169 | -102.21112 | 20971 ft | 307 kts | 67° |
| 2026-04-25 22:32 | 40.47998 | -102.18528 | 20973 ft | 307 kts | 67° |
| 2026-04-25 22:32 | 40.48830 | -102.15938 | 20970 ft | 308 kts | 67° |
| 2026-04-25 22:32 | 40.49660 | -102.13345 | 20971 ft | 307 kts | 67° |
| 2026-04-25 22:32 | 40.50482 | -102.10765 | 20972 ft | 308 kts | 67° |
| 2026-04-25 22:33 | 40.51312 | -102.08163 | 20970 ft | 307 kts | 67° |
| 2026-04-25 22:33 | 40.52127 | -102.05608 | 20971 ft | 307 kts | 67° |
| 2026-04-25 22:33 | 40.52951 | -102.03023 | 20976 ft | 307 kts | 67° |
| 2026-04-25 22:33 | 40.53787 | -102.00402 | 20979 ft | 307 kts | 67° |
| 2026-04-25 22:34 | 40.54600 | -101.97850 | 20979 ft | 307 kts | 67° |
| 2026-04-25 22:34 | 40.55422 | -101.95265 | 20980 ft | 306 kts | 67° |
| 2026-04-25 22:34 | 40.56243 | -101.92678 | 20980 ft | 306 kts | 67° |
| 2026-04-25 22:34 | 40.57062 | -101.90096 | 20980 ft | 306 kts | 67° |
| 2026-04-25 22:35 | 40.57882 | -101.87509 | 20981 ft | 306 kts | 67° |
| 2026-04-25 22:35 | 40.58701 | -101.84924 | 20981 ft | 306 kts | 67° |
| 2026-04-25 22:35 | 40.59519 | -101.82339 | 20981 ft | 306 kts | 67° |
| 2026-04-25 22:35 | 40.60337 | -101.79751 | 20980 ft | 306 kts | 68° |
| 2026-04-25 22:36 | 40.61167 | -101.77119 | 20544 ft | 319 kts | 68° |
| 2026-04-25 22:36 | 40.62026 | -101.74398 | 20194 ft | 323 kts | 68° |
| 2026-04-25 22:36 | 40.62882 | -101.71682 | 19965 ft | 321 kts | 68° |
| 2026-04-25 22:36 | 40.63737 | -101.68970 | 19697 ft | 320 kts | 68° |
| 2026-04-25 22:37 | 40.64587 | -101.66266 | 19474 ft | 319 kts | 68° |
| 2026-04-25 22:37 | 40.65431 | -101.63568 | 19198 ft | 318 kts | 68° |
| 2026-04-25 22:37 | 40.66276 | -101.60881 | 18982 ft | 317 kts | 68° |
| 2026-04-25 22:37 | 40.67116 | -101.58205 | 18692 ft | 316 kts | 68° |
| 2026-04-25 22:38 | 40.67951 | -101.55539 | 18427 ft | 314 kts | 68° |
| 2026-04-25 22:38 | 40.68786 | -101.52876 | 18123 ft | 314 kts | 68° |
| 2026-04-25 22:38 | 40.69613 | -101.50231 | 17785 ft | 311 kts | 69° |
| 2026-04-25 22:38 | 40.70431 | -101.47606 | 17187 ft | 309 kts | 69° |
| 2026-04-25 22:39 | 40.71244 | -101.44995 | 16542 ft | 307 kts | 68° |
| 2026-04-25 22:39 | 40.72053 | -101.42397 | 15899 ft | 306 kts | 68° |
| 2026-04-25 22:39 | 40.72859 | -101.39812 | 15256 ft | 303 kts | 68° |
| 2026-04-25 22:39 | 40.73657 | -101.37247 | 14599 ft | 302 kts | 68° |
| 2026-04-25 22:40 | 40.74451 | -101.34693 | 13933 ft | 300 kts | 68° |
| 2026-04-25 22:40 | 40.75239 | -101.32157 | 13286 ft | 298 kts | 68° |
| 2026-04-25 22:40 | 40.76023 | -101.29633 | 12722 ft | 297 kts | 68° |
| 2026-04-25 22:40 | 40.76805 | -101.27114 | 12384 ft | 297 kts | 68° |
| 2026-04-25 22:41 | 40.77584 | -101.24599 | 12162 ft | 296 kts | 68° |
| 2026-04-25 22:41 | 40.78360 | -101.22088 | 11912 ft | 295 kts | 68° |
| 2026-04-25 22:41 | 40.79133 | -101.19583 | 11689 ft | 293 kts | 68° |
| 2026-04-25 22:41 | 40.79904 | -101.17090 | 11445 ft | 293 kts | 68° |
| 2026-04-25 22:42 | 40.80668 | -101.14611 | 11238 ft | 291 kts | 68° |
| 2026-04-25 22:42 | 40.81427 | -101.12151 | 10994 ft | 289 kts | 68° |
| 2026-04-25 22:42 | 40.82179 | -101.09703 | 10779 ft | 287 kts | 68° |
| 2026-04-25 22:42 | 40.82929 | -101.07269 | 10557 ft | 285 kts | 68° |
| 2026-04-25 22:43 | 40.83673 | -101.04846 | 10322 ft | 283 kts | 69° |
| 2026-04-25 22:43 | 40.84411 | -101.02448 | 10110 ft | 281 kts | 69° |
| 2026-04-25 22:43 | 40.85142 | -101.00062 | 9851 ft | 280 kts | 69° |
| 2026-04-25 22:43 | 40.85868 | -100.97692 | 9619 ft | 277 kts | 69° |
| 2026-04-25 22:44 | 40.86589 | -100.95337 | 9375 ft | 276 kts | 69° |
| 2026-04-25 22:44 | 40.87306 | -100.92995 | 9148 ft | 274 kts | 69° |
| 2026-04-25 22:44 | 40.88017 | -100.90671 | 8900 ft | 272 kts | 69° |
| 2026-04-25 22:44 | 40.88721 | -100.88364 | 8642 ft | 270 kts | 69° |
| 2026-04-25 22:45 | 40.89424 | -100.86068 | 8368 ft | 269 kts | 69° |
| 2026-04-25 22:45 | 40.90119 | -100.83782 | 8106 ft | 267 kts | 69° |
| 2026-04-25 22:45 | 40.90810 | -100.81513 | 7820 ft | 266 kts | 69° |
| 2026-04-25 22:45 | 40.91497 | -100.79253 | 7560 ft | 264 kts | 69° |
| 2026-04-25 22:46 | 40.92179 | -100.77005 | 7305 ft | 262 kts | 69° |
| 2026-04-25 22:46 | 40.92861 | -100.74779 | 7061 ft | 261 kts | 69° |
| 2026-04-25 22:46 | 40.93537 | -100.72545 | 6798 ft | 261 kts | 69° |
| 2026-04-25 22:46 | 40.94422 | -100.70489 | 6532 ft | 259 kts | 45° |
| 2026-04-25 22:47 | 40.96019 | -100.69452 | 6262 ft | 262 kts | 8° |
| 2026-04-25 22:47 | 40.97834 | -100.69579 | 5996 ft | 262 kts | 356° |
| 2026-04-25 22:47 | 40.99664 | -100.69659 | 5442 ft | 267 kts | 4° |
| 2026-04-25 22:47 | 41.01372 | -100.69563 | 5097 ft | 215 kts | 3° |
| 2026-04-25 22:48 | 41.02695 | -100.69561 | 4928 ft | 172 kts | 2° |
| 2026-04-25 22:48 | 41.03897 | -100.69544 | 4335 ft | 161 kts | 4° |
| 2026-04-25 22:48 | 41.04923 | -100.69526 | 4204 ft | 142 kts | 3° |
| 2026-04-25 22:48 | 41.05888 | -100.69502 | 4060 ft | 141 kts | 5° |
| 2026-04-25 22:49 | 41.06882 | -100.69424 | 3833 ft | 143 kts | 5° |
| 2026-04-25 22:49 | 41.07889 | -100.69388 | 3639 ft | 146 kts | 3° |
| 2026-04-25 22:49 | 41.08906 | -100.69387 | 3442 ft | 146 kts | 2° |
| 2026-04-25 22:49 | 41.09925 | -100.69371 | 3246 ft | 147 kts | 4° |
| 2026-04-25 22:50 | 41.10938 | -100.69346 | 3050 ft | 132 kts | 2° |
| 2026-04-25 22:50 | 41.11726 | -100.69336 | 2879 ft | 98 kts | 2° |
| 2026-04-25 22:50 | 41.12328 | -100.69312 | 2788 ft | 74 kts | 1° |
| 2026-04-25 22:50 | 41.12752 | -100.69301 | 2782 ft | 50 kts | 1° |
| 2026-04-25 22:51 | 41.13036 | -100.69292 | 2780 ft | 22 kts | 0° |
| 2026-04-25 22:51 | 41.13111 | -100.69388 | 2778 ft | 12 kts | 270° |
| 2026-04-25 22:51 | 41.13113 | -100.69528 | 2780 ft | 17 kts | 269° |
| 2026-04-25 22:51 | 41.13114 | -100.69644 | 2783 ft | 0 kts | 271° |
| 2026-04-25 22:52 | 41.13119 | -100.69723 | 2784 ft | 23 kts | 283° |
| 2026-04-25 22:53 | 41.13203 | -100.69869 | 2784 ft | 1 kts | 354° |
| 2026-04-25 22:53 | 41.13205 | -100.69870 | 2784 ft | 0 kts | 354° |